Columbus, MT

6:38 AM MDT on September 21, 2014 (GMT -0600)
Bearpaw Ranch | Change Station
CLOSE
Current Station
Personal Weather Station
Location: Columbus, MT
Elevation: 4577 ft
Nearby Weather Stations

Elev 4577 ft 45.55 °N, 109.22 °W | Updated 5 minutes ago

Clear
Clear
50.1 °F
Feels Like 50.1 °F
N
0.0
Wind Variable Wind from NW
Gusts 2.0 mph

Today
High -- | Low -- °F
--% Chance of Precip.
Yesterday
High -- | Low -- °F
Precip. -- in
7:02 AM 7:16 PM
Waning Crescent, 7% visible
Pressure 30.23 in
Visibility 10.0 miles
Clouds Clear
Dew Point 41 °F
Humidity 72%
Rainfall 0.00 in
Snow Depth 0 in , 0 in , 0 in
UV 0 out of 12
Pollen 5.00 out of 12
Air Quality Not available.
Flu Activity Not available.
METAR KBIL 211153Z 35004KT 10SM CLR 11/04 A3028 RMK AO2 SLP237 T01110039 10144 20094 58000

More Conditions Fewer Conditions

Pressure 30.23 in
Visibility 10.0 miles
Clouds Clear
Dew Point 41 °F
Humidity 72%
Rainfall 0.00 in
Snow Depth 0 in , 0 in , 0 in
UV 0 out of 12
Pollen 5.00 out of 12
Air Quality Not available.
Flu Activity Not available.
METAR KBIL 211153Z 35004KT 10SM CLR 11/04 A3028 RMK AO2 SLP237 T01110039 10144 20094 58000

More Conditions Fewer Conditions

10-Day Weather Forecast

Almanac

Astronomy

Sep. 21, 2014 Rise Set
Actual Time 7:02 AM MDT 7:16 PM MDT
Civil Twilight 6:33 AM MDT 7:45 PM MDT
Nautical Twilight 5:58 AM MDT 8:20 PM MDT
Astronomical Twilight 5:22 AM MDT 8:56 PM MDT
Moon 4:33 AM MDT 5:58 PM MDT
Length of Visible Light 13h 12m
Length of Day
12h 13m
Tomorrow will be 3m 12s shorter.
Waning Crescent, 7% of the Moon is Illuminated
Today
Waning Crescent
Sep 24
New
Oct 1
First Quarter
Oct 8
Full
Oct 15
Last Quarter

Today's Extremes

State Highs State Lows

Community

WunderPhotos

Upload Photos

1,755,127 photos uploaded!

Nearby

Snow Depth

Station Depth Elevation
Lone Mountain 0 in 8880 ft
Carrot Basin 0 in 9000 ft
Divide 0 in 7800 ft
Stringer Creek 0 in 6550 ft
North Fork Jocko 0 in 6330 ft

Earthquake Activity

City Distance Mag. Time & Date
No recent earthquake activity has been reported nearby.
Minimum magnitude displayed is 2.5.

Coastal Water Temperatures

Place Temperature
No Stations Reporting

Nearby Weather Stations